Time;durP1;ratioP1;P1;durP2;ratioP2;P2;SDS_P1;SDS_P2;PMS_P1;PMS_P2;Temp;Humidity;BMP_temperature;BMP_pressure;BME280_temperature;BME280_humidity;BME280_pressure;Samples;Min_cycle;Max_cycle;Signal;HPM_P1;HPM_P2
2023/10/23 00:01:20;;;;;;;2.20;2.10;;;;;;;16.46;100.00;99425.63;5094323;28;20271;-66
2023/10/23 00:03:47;;;;;;;2.23;2.13;;;;;;;16.43;100.00;99430.13;5112290;28;20190;-66
2023/10/23 00:06:14;;;;;;;3.20;2.73;;;;;;;16.39;100.00;99432.03;5111923;28;20215;-66
2023/10/23 00:08:40;;;;;;;2.40;2.30;;;;;;;16.37;100.00;99431.31;5112061;28;20645;-66
2023/10/23 00:11:07;;;;;;;2.63;2.53;;;;;;;16.39;100.00;99428.63;5112095;28;20191;-66
2023/10/23 00:13:35;;;;;;;2.30;2.20;;;;;;;16.37;100.00;99436.47;5092759;27;20217;-66
2023/10/23 00:16:02;;;;;;;5.33;2.00;;;;;;;16.34;100.00;99436.63;5091704;28;20649;-66
2023/10/23 00:18:29;;;;;;;2.50;2.30;;;;;;;16.28;100.00;99434.38;5105937;27;20206;-66
2023/10/23 00:20:56;;;;;;;2.57;2.47;;;;;;;16.31;100.00;99436.81;5093670;27;20312;-66
2023/10/23 00:23:22;;;;;;;2.03;1.93;;;;;;;16.32;100.00;99424.72;5090828;28;20199;-66
2023/10/23 00:25:49;;;;;;;2.20;2.10;;;;;;;16.31;100.00;99421.28;5091744;28;20548;-66
2023/10/23 00:28:16;;;;;;;2.13;2.03;;;;;;;16.32;100.00;99422.13;5091746;28;20248;-66
2023/10/23 00:30:45;;;;;;;2.00;1.87;;;;;;;16.32;100.00;99424.72;5091486;28;20641;-66
2023/10/23 00:33:11;;;;;;;2.53;2.33;;;;;;;16.32;100.00;99433.28;5096757;27;20229;-66
2023/10/23 00:35:38;;;;;;;2.77;2.67;;;;;;;16.33;100.00;99424.59;5091215;28;20199;-66
2023/10/23 00:38:06;;;;;;;2.10;2.00;;;;;;;16.29;100.00;99431.69;5104722;28;20641;-66
2023/10/23 00:40:32;;;;;;;2.03;1.93;;;;;;;16.29;100.00;99441.19;5091053;28;20199;-66
2023/10/23 00:43:11;;;;;;;2.00;1.80;;;;;;;16.27;100.00;99437.88;5094084;28;20618;-66
2023/10/23 00:45:40;;;;;;;2.67;1.97;;;;;;;16.26;100.00;99443.94;5091346;28;20646;-66
2023/10/23 00:48:08;;;;;;;8.20;1.73;;;;;;;16.23;100.00;99441.53;5101176;28;20358;-66
2023/10/23 00:50:35;;;;;;;2.20;2.00;;;;;;;16.26;100.00;99454.31;5111794;28;20734;-66
2023/10/23 00:53:01;;;;;;;2.07;1.83;;;;;;;16.23;100.00;99449.28;5110761;28;20256;-66
2023/10/23 00:55:28;;;;;;;9.10;2.03;;;;;;;16.19;100.00;99442.59;5111148;28;20194;-66
2023/10/23 00:57:55;;;;;;;2.27;2.17;;;;;;;16.14;100.00;99452.34;5100400;28;20248;-66
2023/10/23 01:00:22;;;;;;;2.17;2.07;;;;;;;15.99;100.00;99445.41;5110769;28;20202;-66
2023/10/23 01:02:50;;;;;;;1.60;1.57;;;;;;;15.90;100.00;99445.84;5108769;28;20255;-66
2023/10/23 01:05:18;;;;;;;2.40;1.70;;;;;;;15.73;100.00;99450.13;5100523;28;20670;-66
2023/10/23 01:07:45;;;;;;;2.10;1.97;;;;;;;15.66;100.00;99453.94;5102189;28;20211;-66
2023/10/23 01:10:11;;;;;;;1.67;1.57;;;;;;;15.65;100.00;99451.44;5102621;27;20257;-66
2023/10/23 01:12:38;;;;;;;2.53;2.37;;;;;;;15.63;100.00;99442.94;5091209;28;20195;-66
2023/10/23 01:15:06;;;;;;;3.13;1.70;;;;;;;15.63;100.00;99446.34;5103236;28;20254;-66
2023/10/23 01:17:33;;;;;;;1.87;1.77;;;;;;;15.67;100.00;99449.63;5099847;27;20271;-66
2023/10/23 01:19:59;;;;;;;3.77;2.07;;;;;;;15.65;100.00;99451.44;5111063;28;20632;-66
2023/10/23 01:22:27;;;;;;;5.10;2.00;;;;;;;15.63;100.00;99446.34;5110774;28;20251;-66
2023/10/23 01:24:56;;;;;;;3.07;1.87;;;;;;;15.60;100.00;99438.75;5095313;28;20199;-66
2023/10/23 01:27:24;;;;;;;4.27;1.93;;;;;;;15.66;100.00;99442.78;5110185;28;20698;-66
2023/10/23 01:29:50;;;;;;;6.33;2.30;;;;;;;15.66;100.00;99443.63;5110682;28;20455;-66
2023/10/23 01:32:17;;;;;;;8.80;1.57;;;;;;;15.70;100.00;99442.53;5098309;28;20613;-66
2023/10/23 01:34:44;;;;;;;4.23;2.70;;;;;;;15.72;100.00;99440.72;5105807;28;20547;-66
2023/10/23 01:37:11;;;;;;;6.57;2.17;;;;;;;15.71;100.00;99445.94;5095151;28;20249;-66
2023/10/23 01:39:37;;;;;;;4.97;2.50;;;;;;;15.71;100.00;99436.44;5108134;28;20233;-66
2023/10/23 01:42:05;;;;;;;2.53;2.33;;;;;;;15.75;100.00;99448.31;5110667;28;20616;-66
2023/10/23 01:44:33;;;;;;;1.67;1.67;;;;;;;15.77;100.00;99450.00;5110918;28;20263;-66
2023/10/23 01:46:59;;;;;;;2.33;2.23;;;;;;;15.77;100.00;99450.00;5106899;28;20927;-66
2023/10/23 01:49:26;;;;;;;1.90;1.80;;;;;;;15.70;100.00;99449.47;5107253;28;20266;-66
2023/10/23 01:51:53;;;;;;;2.90;2.00;;;;;;;15.66;100.00;99443.63;5110644;28;20198;-66
2023/10/23 01:54:19;;;;;;;2.63;2.43;;;;;;;15.64;100.00;99442.84;5110457;28;20214;-66
2023/10/23 01:56:47;;;;;;;2.27;2.17;;;;;;;15.66;100.00;99433.28;5110212;28;20625;-66
2023/10/23 01:59:14;;;;;;;1.87;1.77;;;;;;;15.67;100.00;99442.69;5109972;28;20590;-66
2023/10/23 02:01:42;;;;;;;2.10;2.00;;;;;;;15.68;100.00;99446.94;5108898;28;20206;-66
2023/10/23 02:04:09;;;;;;;4.10;2.63;;;;;;;15.70;100.00;99441.72;5107564;28;20278;-66
2023/10/23 02:06:35;;;;;;;1.87;1.73;;;;;;;15.66;100.00;99422.94;5092458;28;20207;-66
2023/10/23 02:09:02;;;;;;;2.57;2.47;;;;;;;15.73;100.00;99439.78;5114723;28;20670;-66
2023/10/23 02:11:29;;;;;;;1.67;1.60;;;;;;;15.75;100.00;99443.16;5110180;28;20237;-66
2023/10/23 02:13:56;;;;;;;1.50;1.50;;;;;;;15.72;100.00;99438.13;5093722;28;20741;-66
2023/10/23 02:16:23;;;;;;;5.40;2.03;;;;;;;15.75;100.00;99447.47;5094504;28;20227;-66
2023/10/23 02:18:51;;;;;;;1.60;1.50;;;;;;;15.74;100.00;99446.63;5094012;28;20249;-66
2023/10/23 02:21:18;;;;;;;2.70;2.50;;;;;;;15.73;100.00;99452.72;5108982;27;20264;-66
2023/10/23 02:23:45;;;;;;;5.80;1.97;;;;;;;15.69;100.00;99458.97;5099736;28;20207;-66
2023/10/23 02:26:11;;;;;;;2.83;2.20;;;;;;;15.70;100.00;99458.03;5114415;28;20194;-66
2023/10/23 02:28:38;;;;;;;2.23;2.13;;;;;;;15.66;100.00;99464.28;5113197;28;20636;-66
2023/10/23 02:31:05;;;;;;;5.60;2.23;;;;;;;15.58;100.00;99462.97;5113900;28;20256;-66
2023/10/23 02:33:31;;;;;;;1.87;1.77;;;;;;;15.55;100.00;99468.31;5104998;28;20199;-66
2023/10/23 02:35:59;;;;;;;1.70;1.63;;;;;;;15.49;100.00;99461.69;5099563;27;20246;-66
2023/10/23 02:38:26;;;;;;;6.67;1.60;;;;;;;15.34;100.00;99462.41;5104427;28;20202;-66
2023/10/23 02:40:54;;;;;;;1.63;1.63;;;;;;;14.91;100.00;99455.88;5107732;28;20637;-66
2023/10/23 02:43:21;;;;;;;2.13;2.03;;;;;;;14.80;100.00;99449.56;5106140;27;20198;-66
2023/10/23 02:45:48;;;;;;;1.67;1.60;;;;;;;14.65;100.00;99445.91;5097055;27;20264;-66
2023/10/23 02:48:15;;;;;;;1.73;1.63;;;;;;;14.71;100.00;99446.47;5101718;27;20268;-66
2023/10/23 02:50:42;;;;;;;2.07;1.97;;;;;;;14.74;100.00;99455.81;5110906;28;20209;-66
2023/10/23 02:53:10;;;;;;;2.33;2.20;;;;;;;14.80;100.00;99454.72;5114014;28;20201;-66
2023/10/23 02:55:36;;;;;;;1.17;1.17;;;;;;;14.88;100.00;99452.59;5113832;28;20201;-66
2023/10/23 02:58:03;;;;;;;3.57;2.07;;;;;;;14.95;100.00;99453.97;5113564;27;20666;-66
2023/10/23 03:00:30;;;;;;;1.43;1.33;;;;;;;15.01;100.00;99458.84;5106914;28;20196;-66
2023/10/23 03:02:56;;;;;;;1.00;1.00;;;;;;;15.08;100.00;99455.09;5093597;27;20733;-66
2023/10/23 03:05:23;;;;;;;2.33;2.20;;;;;;;15.11;100.00;99455.78;5110419;28;20198;-66
2023/10/23 03:07:50;;;;;;;2.33;2.23;;;;;;;15.17;100.00;99452.91;5100313;28;20220;-66
2023/10/23 03:10:18;;;;;;;1.53;1.43;;;;;;;15.21;100.00;99462.19;5112126;28;20670;-66
2023/10/23 03:12:45;;;;;;;3.77;1.57;;;;;;;15.23;100.00;99464.66;5092989;28;20198;-66
2023/10/23 03:15:14;;;;;;;3.00;2.70;;;;;;;15.25;100.00;99468.84;5092224;28;20241;-66
2023/10/23 03:17:40;;;;;;;1.47;1.47;;;;;;;15.25;100.00;99468.00;5106727;27;20733;-66
2023/10/23 03:20:09;;;;;;;1.67;1.43;;;;;;;15.27;100.00;99466.19;5096757;28;20207;-66
2023/10/23 03:22:35;;;;;;;1.90;1.90;;;;;;;15.26;100.00;99459.34;5105243;27;20247;-66
2023/10/23 03:25:03;;;;;;;2.37;1.77;;;;;;;15.30;100.00;99468.63;5113070;28;20271;-66
2023/10/23 03:27:32;;;;;;;3.13;1.93;;;;;;;15.31;100.00;99472.91;5103353;27;20340;-66
2023/10/23 03:29:59;;;;;;;2.37;1.80;;;;;;;15.26;100.00;99464.53;5103800;28;20203;-66
2023/10/23 03:32:26;;;;;;;9.63;2.07;;;;;;;15.28;100.00;99478.22;5092302;28;20638;-66
2023/10/23 03:34:52;;;;;;;3.00;1.70;;;;;;;15.24;100.00;99472.34;5092696;28;20229;-66
2023/10/23 03:37:19;;;;;;;2.00;1.90;;;;;;;15.19;100.00;99468.31;5098259;28;20207;-66
2023/10/23 03:39:46;;;;;;;1.70;1.57;;;;;;;15.18;100.00;99476.97;5092970;28;20252;-66
2023/10/23 03:42:13;;;;;;;4.53;1.90;;;;;;;15.16;100.00;99481.34;5107839;27;20563;-66
2023/10/23 03:44:41;;;;;;;2.27;2.00;;;;;;;15.13;100.00;99471.19;5099357;28;20198;-66
2023/10/23 03:47:07;;;;;;;1.87;1.77;;;;;;;15.16;100.00;99473.63;5099943;27;20244;-66
2023/10/23 03:49:34;;;;;;;2.20;2.07;;;;;;;15.14;100.00;99475.44;5096416;28;20194;-66
2023/10/23 03:52:01;;;;;;;2.40;1.67;;;;;;;15.11;100.00;99481.59;5107370;28;20629;-66
2023/10/23 03:54:27;;;;;;;2.10;2.00;;;;;;;15.10;100.00;99474.75;5100768;28;20191;-66
2023/10/23 03:56:54;;;;;;;3.17;2.57;;;;;;;15.11;100.00;99470.44;5092053;28;20211;-66
2023/10/23 03:59:21;;;;;;;1.60;1.50;;;;;;;15.09;100.00;99467.91;5104283;28;20232;-66
2023/10/23 04:01:49;;;;;;;1.83;1.73;;;;;;;15.00;100.00;99452.84;5099209;27;20200;-66
2023/10/23 04:04:16;;;;;;;2.57;1.53;;;;;;;15.09;100.00;99472.22;5091754;28;20286;-66
2023/10/23 04:06:42;;;;;;;1.33;1.33;;;;;;;15.06;100.00;99468.06;5101904;27;20235;-66
2023/10/23 04:09:09;;;;;;;2.47;2.30;;;;;;;15.08;100.00;99470.56;5110310;28;20220;-66
2023/10/23 04:11:36;;;;;;;1.93;1.83;;;;;;;15.07;100.00;99474.91;5092319;28;20203;-66
2023/10/23 04:14:04;;;;;;;1.17;1.17;;;;;;;15.06;100.00;99472.38;5092043;28;20196;-66
2023/10/23 04:16:30;;;;;;;2.43;2.33;;;;;;;15.04;100.00;99471.63;5102448;28;20231;-66
2023/10/23 04:18:58;;;;;;;1.77;1.77;;;;;;;15.04;100.00;99474.19;5098507;28;20245;-66
2023/10/23 04:21:25;;;;;;;1.80;1.70;;;;;;;15.02;100.00;99478.63;5106882;28;20207;-66
2023/10/23 04:23:52;;;;;;;7.57;1.70;;;;;;;14.90;100.00;99461.09;5102929;28;20256;-66
2023/10/23 04:26:20;;;;;;;2.10;2.00;;;;;;;15.01;100.00;99479.50;5094606;28;20198;-66
2023/10/23 04:28:46;;;;;;;1.73;1.70;;;;;;;15.02;100.00;99476.03;5090449;28;20233;-66
2023/10/23 04:31:13;;;;;;;4.07;1.77;;;;;;;15.03;100.00;99477.69;5091423;28;20195;-66
2023/10/23 04:33:40;;;;;;;2.07;1.97;;;;;;;15.02;100.00;99470.88;5090887;28;20202;-66
2023/10/23 04:36:08;;;;;;;1.93;1.83;;;;;;;15.03;100.00;99477.69;5091463;28;20226;-66
2023/10/23 04:38:35;;;;;;;1.23;1.23;;;;;;;15.03;100.00;99475.94;5090967;28;20663;-66
2023/10/23 04:41:01;;;;;;;1.17;1.17;;;;;;;15.05;100.00;99481.03;5099398;27;20279;-66
2023/10/23 04:43:28;;;;;;;2.40;2.30;;;;;;;15.05;100.00;99481.03;5111280;27;20251;-66
2023/10/23 04:45:57;;;;;;;1.67;1.63;;;;;;;15.05;100.00;99484.47;5105939;28;20678;-66
2023/10/23 04:48:24;;;;;;;2.07;1.97;;;;;;;15.07;100.00;99484.38;5096423;28;20222;-66
2023/10/23 04:50:51;;;;;;;2.00;1.97;;;;;;;15.08;100.00;99491.22;5090749;28;20195;-66
2023/10/23 04:53:19;;;;;;;1.57;1.30;;;;;;;15.10;100.00;99489.41;5110346;28;20263;-66
2023/10/23 04:55:46;;;;;;;1.93;1.83;;;;;;;15.10;100.00;99497.16;5111267;28;20195;-66
2023/10/23 04:58:12;;;;;;;2.70;2.50;;;;;;;15.10;100.00;99499.72;5112192;27;20191;-66
2023/10/23 05:00:39;;;;;;;1.97;1.77;;;;;;;15.07;100.00;99499.88;5092570;27;20663;-66
2023/10/23 05:03:07;;;;;;;1.40;1.40;;;;;;;15.09;100.00;99504.06;5104537;27;20195;-66
2023/10/23 05:05:35;;;;;;;2.93;2.73;;;;;;;15.08;100.00;99501.56;5091111;28;20250;-66
2023/10/23 05:08:03;;;;;;;1.50;1.50;;;;;;;15.09;100.00;99513.53;5097686;28;20291;-66
2023/10/23 05:10:31;;;;;;;1.30;1.30;;;;;;;15.08;100.00;99514.47;5110663;28;20210;-66
2023/10/23 05:12:58;;;;;;;6.17;1.77;;;;;;;15.09;100.00;99529.03;5110322;28;20258;-66
2023/10/23 05:15:25;;;;;;;1.80;1.77;;;;;;;15.06;100.00;99522.28;5102149;28;20266;-66
2023/10/23 05:17:51;;;;;;;2.37;1.80;;;;;;;15.09;100.00;99523.88;5110573;28;20583;-66
2023/10/23 05:20:18;;;;;;;4.27;1.13;;;;;;;15.08;100.00;99524.78;5105880;28;20195;-66
2023/10/23 05:22:45;;;;;;;1.87;1.77;;;;;;;15.10;100.00;99525.53;5100324;28;20209;-66
2023/10/23 05:25:11;;;;;;;2.83;1.80;;;;;;;15.12;100.00;99524.56;5110160;28;20735;-66
2023/10/23 05:27:40;;;;;;;3.83;1.87;;;;;;;15.12;100.00;99529.72;5099230;28;20202;-66
2023/10/23 05:30:07;;;;;;;2.33;2.13;;;;;;;15.10;100.00;99535.88;5090602;28;20386;-66
2023/10/23 05:32:35;;;;;;;6.70;1.50;;;;;;;15.05;100.00;99532.69;5090342;28;20201;-66
2023/10/23 05:35:03;;;;;;;3.90;2.50;;;;;;;15.13;100.00;99546.06;5090260;28;20230;-66
2023/10/23 05:37:30;;;;;;;9.20;2.93;;;;;;;15.16;100.00;99545.91;5091817;28;20646;-66
2023/10/23 05:39:57;;;;;;;2.33;2.27;;;;;;;15.18;100.00;99542.38;5098430;28;20255;-66
2023/10/23 05:42:23;;;;;;;2.43;2.33;;;;;;;15.23;100.00;99548.16;5113108;27;20572;-66
2023/10/23 05:44:52;;;;;;;1.63;1.60;;;;;;;15.23;100.00;99544.72;5099998;28;20199;-66
2023/10/23 05:47:18;;;;;;;3.03;2.57;;;;;;;15.25;100.00;99553.22;5114032;28;20209;-66
2023/10/23 05:49:45;;;;;;;4.07;2.10;;;;;;;15.17;100.00;99535.53;5112258;28;20213;-66
2023/10/23 05:52:12;;;;;;;2.47;2.10;;;;;;;15.27;100.00;99550.59;5114393;28;20199;-66
2023/10/23 05:54:38;;;;;;;9.00;2.60;;;;;;;15.30;100.00;99558.19;5114405;28;20206;-66
2023/10/23 05:57:05;;;;;;;2.87;2.53;;;;;;;15.34;100.00;99560.56;5112337;28;20267;-66
2023/10/23 05:59:33;;;;;;;1.70;1.60;;;;;;;15.40;100.00;99562.03;5113513;27;20637;-66
2023/10/23 06:02:02;;;;;;;7.00;1.70;;;;;;;15.42;100.00;99558.44;5105974;27;20199;-66
2023/10/23 06:04:29;;;;;;;2.03;1.93;;;;;;;15.46;100.00;99562.56;5098755;28;20574;-66
2023/10/23 06:06:56;;;;;;;9.40;1.77;;;;;;;15.46;100.00;99556.56;5106447;27;20206;-66
2023/10/23 06:09:23;;;;;;;4.30;1.80;;;;;;;15.50;100.00;99563.31;5103533;27;20218;-66
2023/10/23 06:11:49;;;;;;;1.77;1.67;;;;;;;15.54;100.00;99568.22;5110945;27;20191;-65
2023/10/23 06:14:16;;;;;;;3.40;3.20;;;;;;;15.56;100.00;99569.00;5101013;27;20264;-65
2023/10/23 06:16:43;;;;;;;2.13;1.43;;;;;;;15.58;100.00;99567.19;5109389;28;20699;-66
2023/10/23 06:19:11;;;;;;;1.87;1.77;;;;;;;15.63;100.00;99565.22;5112963;28;20255;-66
2023/10/23 06:21:38;;;;;;;1.80;1.70;;;;;;;15.67;100.00;99566.72;5100948;28;20203;-67
2023/10/23 06:24:05;;;;;;;1.40;1.40;;;;;;;15.79;100.00;99564.47;5102654;28;20255;-67
2023/10/23 06:26:32;;;;;;;4.40;1.70;;;;;;;15.86;100.00;99563.28;5103055;28;20206;-66
2023/10/23 06:28:59;;;;;;;10.77;2.27;;;;;;;15.82;100.00;99566.91;5109980;28;20223;-66
2023/10/23 06:31:25;;;;;;;3.43;2.17;;;;;;;15.91;100.00;99571.63;5106702;27;20202;-67
2023/10/23 06:33:54;;;;;;;2.63;2.00;;;;;;;15.92;100.00;99563.81;5102752;27;20253;-66
2023/10/23 06:36:22;;;;;;;1.67;1.57;;;;;;;15.97;100.00;99558.41;5107178;28;20207;-66
2023/10/23 06:38:49;;;;;;;1.87;1.80;;;;;;;16.05;100.00;99561.47;5106396;28;20640;-65
2023/10/23 06:41:16;;;;;;;3.07;2.60;;;;;;;16.13;100.00;99559.31;5104949;27;20655;-66
2023/10/23 06:43:43;;;;;;;4.63;2.10;;;;;;;16.19;100.00;99556.41;5108897;28;20275;-66
2023/10/23 06:46:10;;;;;;;2.10;1.63;;;;;;;16.26;100.00;99558.63;5100903;27;20207;-66
2023/10/23 06:48:36;;;;;;;1.70;1.60;;;;;;;16.29;100.00;99557.63;5103943;27;20223;-67
2023/10/23 06:51:03;;;;;;;5.37;2.37;;;;;;;16.24;100.00;99564.78;5107307;27;20199;-66
2023/10/23 06:53:31;;;;;;;2.07;1.97;;;;;;;16.33;100.00;99561.72;5104822;28;20198;-66
2023/10/23 06:55:58;;;;;;;3.00;2.63;;;;;;;16.39;100.00;99569.19;5106238;27;20739;-65
2023/10/23 06:58:25;;;;;;;8.63;2.70;;;;;;;16.46;100.00;99574.88;5101537;27;20220;-66
2023/10/23 07:00:51;;;;;;;3.03;2.93;;;;;;;16.55;100.00;99564.91;5100804;27;20199;-66
2023/10/23 07:03:18;;;;;;;3.43;2.40;;;;;;;16.68;100.00;99560.78;5109211;27;20202;-66
2023/10/23 07:05:45;;;;;;;2.13;2.03;;;;;;;16.78;100.00;99556.78;5111511;28;20203;-66
2023/10/23 07:08:12;;;;;;;2.13;2.03;;;;;;;16.92;100.00;99555.22;5110186;27;20215;-66
2023/10/23 07:10:40;;;;;;;2.30;1.97;;;;;;;17.04;100.00;99557.16;5110794;28;20602;-66
2023/10/23 07:13:06;;;;;;;1.93;1.83;;;;;;;17.19;100.00;99551.13;5098461;28;20203;-66
2023/10/23 07:15:34;;;;;;;2.17;2.03;;;;;;;17.30;100.00;99548.78;5106022;27;20247;-68
2023/10/23 07:18:00;;;;;;;10.57;2.80;;;;;;;17.44;100.00;99545.44;5105317;28;20275;-65
2023/10/23 07:20:27;;;;;;;2.50;2.30;;;;;;;17.54;100.00;99552.63;5105383;27;20286;-66
2023/10/23 07:22:54;;;;;;;1.87;1.77;;;;;;;17.70;100.00;99553.47;5100434;27;20207;-66
2023/10/23 07:25:20;;;;;;;8.20;2.63;;;;;;;17.83;100.00;99554.41;5101164;28;20272;-66
2023/10/23 07:27:49;;;;;;;4.40;2.10;;;;;;;18.00;100.00;99553.44;5109425;28;20282;-66
2023/10/23 07:30:16;;;;;;;3.03;1.83;;;;;;;18.15;100.00;99547.38;5105782;28;20671;-66
2023/10/23 07:32:43;;;;;;;2.60;2.23;;;;;;;18.31;99.27;99544.72;5107727;27;20211;-66
2023/10/23 07:35:09;;;;;;;3.73;2.00;;;;;;;18.44;97.43;99544.81;5109994;28;20253;-66
2023/10/23 07:37:37;;;;;;;6.43;2.57;;;;;;;18.53;96.78;99541.69;5103154;28;20209;-66
2023/10/23 07:40:05;;;;;;;2.10;2.00;;;;;;;18.61;96.43;99542.06;5106339;28;20577;-66
2023/10/23 07:42:32;;;;;;;1.50;1.40;;;;;;;18.77;94.97;99543.63;5106854;28;20240;-67
2023/10/23 07:45:01;;;;;;;6.33;1.60;;;;;;;18.88;94.79;99546.41;5102667;27;20254;-66
2023/10/23 07:47:28;;;;;;;2.93;2.23;;;;;;;18.99;94.42;99545.75;5105631;27;20690;-67
2023/10/23 07:49:55;;;;;;;4.07;1.50;;;;;;;19.26;94.71;99545.75;5106126;27;20318;-67
2023/10/23 07:52:21;;;;;;;2.40;2.20;;;;;;;19.45;93.81;99546.28;5108922;27;20636;-66
2023/10/23 07:54:48;;;;;;;1.83;1.70;;;;;;;19.65;91.72;99547.59;5105554;28;20674;-69
2023/10/23 07:57:15;;;;;;;5.87;2.43;;;;;;;19.80;92.94;99547.47;5104934;27;20202;-67
2023/10/23 07:59:41;;;;;;;1.17;1.17;;;;;;;19.96;90.28;99541.25;5110560;28;20198;-65
2023/10/23 08:02:09;;;;;;;2.53;1.70;;;;;;;20.18;89.10;99547.53;5107635;27;20267;-67
2023/10/23 08:04:36;;;;;;;7.70;2.43;;;;;;;20.38;88.17;99539.25;5108196;28;20271;-65
2023/10/23 08:07:03;;;;;;;1.83;1.73;;;;;;;20.61;87.80;99542.88;5107580;27;20256;-68
2023/10/23 08:09:30;;;;;;;3.30;1.77;;;;;;;20.82;87.34;99537.91;5108381;27;20659;-71
2023/10/23 08:11:56;;;;;;;2.77;1.70;;;;;;;21.01;84.40;99548.72;5108187;28;20259;-66
2023/10/23 08:14:23;;;;;;;1.70;1.60;;;;;;;21.20;84.79;99538.69;5106955;27;20259;-65
2023/10/23 08:16:52;;;;;;;1.60;1.50;;;;;;;21.39;83.02;99538.19;5101896;27;20234;-66
2023/10/23 08:19:20;;;;;;;2.10;1.43;;;;;;;21.57;83.34;99542.09;5105643;28;20199;-64
2023/10/23 08:21:47;;;;;;;1.60;1.50;;;;;;;21.71;82.92;99544.50;5103649;28;20263;-66
2023/10/23 08:24:15;;;;;;;2.37;1.60;;;;;;;21.89;81.00;99537.97;5105415;28;20206;-65
2023/10/23 08:26:41;;;;;;;1.83;1.73;;;;;;;22.00;81.11;99538.97;5105071;28;20697;-66
2023/10/23 08:29:08;;;;;;;5.00;1.83;;;;;;;22.23;79.43;99543.28;5105969;28;20278;-67
2023/10/23 08:31:35;;;;;;;2.10;1.83;;;;;;;22.35;78.34;99544.97;5099859;28;20207;-66
2023/10/23 08:34:02;;;;;;;7.77;1.73;;;;;;;22.48;77.65;99540.47;5099840;28;20336;-66
2023/10/23 08:36:30;;;;;;;2.87;1.63;;;;;;;22.67;77.63;99543.34;5106476;28;20632;-64
2023/10/23 08:38:57;;;;;;;2.80;1.57;;;;;;;22.84;76.97;99542.84;5105762;28;20199;-66
2023/10/23 08:41:25;;;;;;;6.07;2.13;;;;;;;22.95;76.66;99545.47;5102348;28;20217;-66
2023/10/23 08:43:52;;;;;;;1.63;1.53;;;;;;;23.06;76.22;99542.00;5109822;27;20198;-65
2023/10/23 08:46:19;;;;;;;2.10;1.47;;;;;;;23.16;75.57;99540.34;5104407;28;20214;-65
2023/10/23 08:48:46;;;;;;;1.57;1.47;;;;;;;23.29;74.65;99534.94;5100369;28;20218;-65
2023/10/23 08:51:15;;;;;;;4.17;1.17;;;;;;;23.37;74.55;99529.91;5104281;28;20260;-65
2023/10/23 08:53:50;;;;;;;3.27;1.93;;;;;;;23.46;75.48;99526.56;5097774;28;20207;-66
2023/10/23 08:56:19;;;;;;;1.43;1.27;;;;;;;23.59;74.44;99519.41;5096476;28;20268;-66
2023/10/23 08:58:56;;;;;;;4.87;0.97;;;;;;;23.67;73.03;99526.63;5100146;28;20195;-65
2023/10/23 09:01:23;;;;;;;1.80;1.70;;;;;;;23.68;72.31;99523.91;5103180;27;20198;-65
2023/10/23 09:03:50;;;;;;;1.23;1.13;;;;;;;23.69;73.10;99525.53;5110339;27;20195;-65
2023/10/23 09:06:18;;;;;;;4.03;1.03;;;;;;;23.73;73.49;99513.88;5107139;28;20210;-65
2023/10/23 09:08:47;;;;;;;1.13;1.00;;;;;;;23.72;73.56;99519.22;5101843;27;20559;-65
2023/10/23 09:11:14;;;;;;;1.80;1.70;;;;;;;23.75;72.48;99508.53;5102879;28;20284;-65
2023/10/23 09:13:42;;;;;;;1.40;1.30;;;;;;;23.84;73.37;99508.59;5103884;28;20257;-65
2023/10/23 09:16:09;;;;;;;1.43;1.37;;;;;;;23.95;72.32;99505.06;5098318;28;20226;-65
2023/10/23 09:18:45;;;;;;;5.37;1.20;;;;;;;24.05;73.71;99496.31;5098506;28;20646;-64
2023/10/23 09:21:12;;;;;;;2.40;1.07;;;;;;;24.19;72.51;99496.97;5105209;28;20695;-66
2023/10/23 09:23:53;;;;;;;3.53;1.10;;;;;;;24.27;71.62;99495.34;5101504;28;20248;-66
2023/10/23 09:26:20;;;;;;;2.23;1.50;;;;;;;24.30;69.85;99489.00;5099767;28;20213;-65
2023/10/23 09:28:49;;;;;;;1.63;1.60;;;;;;;24.42;69.65;99488.81;5105287;28;20254;-65
2023/10/23 09:31:16;;;;;;;4.57;1.20;;;;;;;24.49;69.78;99489.13;5101376;28;20666;-65
2023/10/23 09:33:44;;;;;;;3.67;1.07;;;;;;;24.54;70.86;99486.91;5101423;28;20792;-65
2023/10/23 09:36:11;;;;;;;5.43;1.70;;;;;;;24.64;68.06;99486.97;5108550;28;20229;-66
2023/10/23 09:38:39;;;;;;;1.77;1.00;;;;;;;24.68;67.09;99489.19;5109411;28;20198;-65
2023/10/23 09:41:09;;;;;;;1.53;1.33;;;;;;;24.74;67.48;99475.53;5103547;28;20699;-66
2023/10/23 09:43:43;;;;;;;4.57;1.07;;;;;;;24.78;66.77;99473.50;5108762;28;20194;-64
2023/10/23 09:46:12;;;;;;;1.80;0.93;;;;;;;24.75;67.67;99477.19;5108766;28;20230;-65
2023/10/23 09:48:41;;;;;;;1.23;1.23;;;;;;;24.61;68.38;99456.59;5094701;28;20205;-65
2023/10/23 09:51:11;;;;;;;5.47;1.50;;;;;;;24.71;69.51;99475.81;5106358;28;20219;-65
2023/10/23 09:53:38;;;;;;;3.10;1.37;;;;;;;24.84;67.88;99471.19;5103346;28;20759;-65
2023/10/23 09:56:07;;;;;;;1.13;1.13;;;;;;;24.84;67.02;99459.88;5097520;28;20203;-65
2023/10/23 09:58:40;;;;;;;2.50;1.43;;;;;;;24.91;68.48;99461.78;5115293;28;20202;-67
2023/10/23 10:01:11;;;;;;;3.73;1.27;;;;;;;24.94;67.15;99453.66;5107117;28;20274;-65
2023/10/23 10:03:41;;;;;;;2.33;1.10;;;;;;;25.10;66.60;99452.31;5103412;28;20229;-65
2023/10/23 10:06:14;;;;;;;8.90;2.27;;;;;;;25.28;67.60;99459.34;5102712;28;20211;-66
2023/10/23 10:08:49;;;;;;;1.43;1.00;;;;;;;25.39;64.35;99458.41;5096671;28;20203;-66
2023/10/23 10:11:17;;;;;;;1.20;1.10;;;;;;;25.53;63.35;99455.38;5096769;28;20239;-66
2023/10/23 10:13:48;;;;;;;2.53;1.10;;;;;;;25.67;63.66;99443.63;5094439;28;20199;-66
2023/10/23 10:16:16;;;;;;;2.73;1.10;;;;;;;25.85;62.42;99434.88;5103629;28;20223;-66
2023/10/23 10:18:43;;;;;;;0.93;0.93;;;;;;;25.99;61.68;99439.66;5100995;28;20626;-66
2023/10/23 10:21:12;;;;;;;0.80;0.80;;;;;;;25.95;61.20;99435.66;5098060;28;20231;-66
2023/10/23 10:23:40;;;;;;;1.63;1.13;;;;;;;26.06;63.18;99432.88;5104102;28;20243;-66
2023/10/23 10:26:07;;;;;;;1.47;1.37;;;;;;;26.17;61.31;99423.19;5100554;28;20199;-67
2023/10/23 10:28:38;;;;;;;3.17;1.17;;;;;;;26.23;60.59;99422.63;5108510;28;20253;-65
2023/10/23 10:31:06;;;;;;;3.90;1.43;;;;;;;26.30;60.66;99418.44;5104745;28;20218;-65
2023/10/23 10:33:33;;;;;;;1.60;1.50;;;;;;;26.39;60.54;99417.56;5103136;27;20207;-65
2023/10/23 10:36:01;;;;;;;5.07;1.30;;;;;;;26.50;61.41;99419.97;5104716;27;20720;-65
2023/10/23 10:38:30;;;;;;;1.27;0.97;;;;;;;26.58;60.79;99409.56;5104431;28;20203;-66
2023/10/23 10:40:57;;;;;;;1.33;1.00;;;;;;;26.58;58.01;99402.50;5100532;28;20226;-67
2023/10/23 10:43:25;;;;;;;3.57;1.10;;;;;;;26.61;58.86;99406.66;5108220;28;20199;-65
2023/10/23 10:45:52;;;;;;;1.43;1.30;;;;;;;26.67;58.51;99399.97;5108227;28;20199;-64
2023/10/23 10:48:20;;;;;;;2.37;1.33;;;;;;;26.77;60.02;99406.81;5107824;28;20284;-64
2023/10/23 10:50:47;;;;;;;3.33;1.53;;;;;;;26.84;57.39;99397.41;5104075;28;20513;-64
2023/10/23 10:53:15;;;;;;;1.30;1.30;;;;;;;26.85;57.47;99396.41;5105878;27;20222;-65
2023/10/23 10:55:45;;;;;;;1.90;1.10;;;;;;;26.95;57.15;99394.53;5108765;28;20195;-64
2023/10/23 10:58:12;;;;;;;4.73;0.93;;;;;;;26.98;58.04;99386.31;5107500;28;20217;-65
2023/10/23 11:00:39;;;;;;;1.20;1.10;;;;;;;27.01;57.53;99383.41;5102751;28;20244;-65
2023/10/23 11:03:06;;;;;;;1.03;1.03;;;;;;;27.03;56.99;99376.19;5104025;28;20631;-65
2023/10/23 11:05:36;;;;;;;2.77;0.90;;;;;;;27.04;56.59;99362.03;5099998;28;20662;-64
2023/10/23 11:08:03;;;;;;;3.40;1.70;;;;;;;27.23;56.45;99378.66;5103887;27;20191;-65
2023/10/23 11:10:30;;;;;;;1.38;1.00;;;;;;;27.33;57.13;99376.78;5108637;27;20442;-66
2023/10/23 11:12:57;;;;;;;4.00;1.53;;;;;;;27.37;53.92;99380.72;5095154;28;20248;-66
2023/10/23 11:15:24;;;;;;;5.03;2.13;;;;;;;27.43;54.04;99374.88;5093432;28;20195;-66
2023/10/23 11:17:51;;;;;;;2.17;0.70;;;;;;;27.45;52.54;99367.66;5098665;28;20273;-66
2023/10/23 11:20:18;;;;;;;3.43;1.40;;;;;;;27.46;53.49;99362.25;5106302;28;20705;-66
2023/10/23 11:22:47;;;;;;;1.30;1.00;;;;;;;27.53;53.44;99375.59;5112808;28;20206;-66
2023/10/23 11:25:15;;;;;;;1.13;1.00;;;;;;;27.60;53.22;99374.00;5099674;28;20199;-66
2023/10/23 11:27:42;;;;;;;1.37;1.27;;;;;;;27.62;54.86;99366.81;5109516;28;20252;-67
2023/10/23 11:30:09;;;;;;;0.93;0.93;;;;;;;27.67;54.15;99369.78;5102795;28;20283;-66